sensor_id;sensor_type;location;lat;lon;timestamp;pressure;altitude;pressure_sealevel;temperature;humidity
73817;BME280;62146;53.232;-1.304;2022-11-02T00:01:35;99529.91;;;9.78;100.00
73817;BME280;62146;53.232;-1.304;2022-11-02T00:04:04;99537.34;;;9.76;100.00
73817;BME280;62146;53.232;-1.304;2022-11-02T00:06:30;99545.53;;;9.74;100.00
73817;BME280;62146;53.232;-1.304;2022-11-02T00:08:57;99542.06;;;9.74;100.00
73817;BME280;62146;53.232;-1.304;2022-11-02T00:11:23;99560.59;;;9.74;100.00
73817;BME280;62146;53.232;-1.304;2022-11-02T00:13:50;99552.94;;;9.72;100.00
73817;BME280;62146;53.232;-1.304;2022-11-02T00:16:18;99567.22;;;9.71;100.00
73817;BME280;62146;53.232;-1.304;2022-11-02T00:18:47;99573.56;;;9.70;100.00
73817;BME280;62146;53.232;-1.304;2022-11-02T00:21:17;99571.97;;;9.69;100.00
73817;BME280;62146;53.232;-1.304;2022-11-02T00:23:45;99587.84;;;9.69;100.00
73817;BME280;62146;53.232;-1.304;2022-11-02T00:26:13;99591.28;;;9.70;100.00
73817;BME280;62146;53.232;-1.304;2022-11-02T00:28:39;99601.09;;;9.69;100.00
73817;BME280;62146;53.232;-1.304;2022-11-02T00:31:06;99606.38;;;9.69;100.00
73817;BME280;62146;53.232;-1.304;2022-11-02T00:33:33;99627.28;;;9.71;100.00
73817;BME280;62146;53.232;-1.304;2022-11-02T00:35:59;99630.75;;;9.71;100.00
73817;BME280;62146;53.232;-1.304;2022-11-02T00:38:26;99635.00;;;9.72;100.00
73817;BME280;62146;53.232;-1.304;2022-11-02T00:40:52;99650.88;;;9.72;100.00
73817;BME280;62146;53.232;-1.304;2022-11-02T00:43:19;99658.81;;;9.72;100.00
73817;BME280;62146;53.232;-1.304;2022-11-02T00:45:45;99660.69;;;9.72;100.00
73817;BME280;62146;53.232;-1.304;2022-11-02T00:48:12;99662.53;;;9.71;100.00
73817;BME280;62146;53.232;-1.304;2022-11-02T00:50:38;99676.56;;;9.72;100.00
73817;BME280;62146;53.232;-1.304;2022-11-02T00:53:05;99675.22;;;9.69;100.00
73817;BME280;62146;53.232;-1.304;2022-11-02T00:55:31;99692.38;;;9.67;100.00
73817;BME280;62146;53.232;-1.304;2022-11-02T00:58:00;99681.00;;;9.66;100.00
73817;BME280;62146;53.232;-1.304;2022-11-02T01:00:27;99694.00;;;9.68;100.00
73817;BME280;62146;53.232;-1.304;2022-11-02T01:02:54;99684.22;;;9.68;100.00
73817;BME280;62146;53.232;-1.304;2022-11-02T01:05:24;99695.84;;;9.67;100.00
73817;BME280;62146;53.232;-1.304;2022-11-02T01:07:51;99702.69;;;9.63;100.00
73817;BME280;62146;53.232;-1.304;2022-11-02T01:10:17;99713.28;;;9.63;100.00
73817;BME280;62146;53.232;-1.304;2022-11-02T01:12:44;99726.53;;;9.63;100.00
73817;BME280;62146;53.232;-1.304;2022-11-02T01:15:11;99729.16;;;9.63;100.00
73817;BME280;62146;53.232;-1.304;2022-11-02T01:17:37;99736.06;;;9.64;100.00
73817;BME280;62146;53.232;-1.304;2022-11-02T01:20:04;99738.94;;;9.63;100.00
73817;BME280;62146;53.232;-1.304;2022-11-02T01:22:31;99749.28;;;9.64;100.00
73817;BME280;62146;53.232;-1.304;2022-11-02T01:24:58;99750.34;;;9.63;100.00
73817;BME280;62146;53.232;-1.304;2022-11-02T01:27:24;99751.16;;;9.64;100.00
73817;BME280;62146;53.232;-1.304;2022-11-02T01:29:51;99754.03;;;9.62;100.00
73817;BME280;62146;53.232;-1.304;2022-11-02T01:32:17;99759.00;;;9.59;100.00
73817;BME280;62146;53.232;-1.304;2022-11-02T01:34:44;99777.81;;;9.58;100.00
73817;BME280;62146;53.232;-1.304;2022-11-02T01:37:10;99774.59;;;9.56;100.00
73817;BME280;62146;53.232;-1.304;2022-11-02T01:39:37;99788.88;;;9.55;100.00
73817;BME280;62146;53.232;-1.304;2022-11-02T01:42:15;99778.25;;;9.50;100.00
73817;BME280;62146;53.232;-1.304;2022-11-02T01:44:42;99793.94;;;9.56;100.00
73817;BME280;62146;53.232;-1.304;2022-11-02T01:47:19;99787.78;;;9.51;100.00
73817;BME280;62146;53.232;-1.304;2022-11-02T01:49:51;99786.03;;;9.40;100.00
73817;BME280;62146;53.232;-1.304;2022-11-02T01:52:23;99792.44;;;9.44;100.00
73817;BME280;62146;53.232;-1.304;2022-11-02T01:55:02;99799.53;;;9.38;100.00
73817;BME280;62146;53.232;-1.304;2022-11-02T01:57:30;99813.03;;;9.37;100.00
73817;BME280;62146;53.232;-1.304;2022-11-02T02:00:13;99809.81;;;9.35;99.91
73817;BME280;62146;53.232;-1.304;2022-11-02T02:05:14;99821.13;;;9.31;99.92
73817;BME280;62146;53.232;-1.304;2022-11-02T02:07:43;99819.44;;;9.25;99.67
73817;BME280;62146;53.232;-1.304;2022-11-02T02:10:10;99830.22;;;9.18;99.82
73817;BME280;62146;53.232;-1.304;2022-11-02T02:12:38;99838.66;;;9.15;99.79
73817;BME280;62146;53.232;-1.304;2022-11-02T02:15:06;99844.09;;;9.09;99.52
73817;BME280;62146;53.232;-1.304;2022-11-02T02:17:46;99838.44;;;9.01;99.79
73817;BME280;62146;53.232;-1.304;2022-11-02T02:28:47;99872.03;;;8.84;99.50
73817;BME280;62146;53.232;-1.304;2022-11-02T02:31:42;99869.53;;;8.78;99.57
73817;BME280;62146;53.232;-1.304;2022-11-02T02:34:25;99878.19;;;8.73;99.34
73817;BME280;62146;53.232;-1.304;2022-11-02T02:37:00;99875.78;;;8.72;99.31
73817;BME280;62146;53.232;-1.304;2022-11-02T02:39:45;99878.34;;;8.67;99.59
73817;BME280;62146;53.232;-1.304;2022-11-02T02:42:22;99871.72;;;8.64;99.69
73817;BME280;62146;53.232;-1.304;2022-11-02T02:45:15;99869.22;;;8.58;99.45
73817;BME280;62146;53.232;-1.304;2022-11-02T02:47:57;99877.38;;;8.56;99.38
73817;BME280;62146;53.232;-1.304;2022-11-02T02:50:29;99876.56;;;8.56;99.38
73817;BME280;62146;53.232;-1.304;2022-11-02T02:52:58;99872.25;;;8.50;99.26
73817;BME280;62146;53.232;-1.304;2022-11-02T02:55:31;99874.56;;;8.47;99.27
73817;BME280;62146;53.232;-1.304;2022-11-02T02:58:01;99875.63;;;8.46;99.14
73817;BME280;62146;53.232;-1.304;2022-11-02T03:00:29;99876.31;;;8.41;99.26
73817;BME280;62146;53.232;-1.304;2022-11-02T03:02:56;99879.19;;;8.40;99.35
73817;BME280;62146;53.232;-1.304;2022-11-02T03:05:28;99887.13;;;8.40;99.04
73817;BME280;62146;53.232;-1.304;2022-11-02T03:07:58;99883.34;;;8.36;99.16
73817;BME280;62146;53.232;-1.304;2022-11-02T03:10:33;99897.03;;;8.33;99.11
73817;BME280;62146;53.232;-1.304;2022-11-02T03:15:46;99904.28;;;8.26;99.29
73817;BME280;62146;53.232;-1.304;2022-11-02T03:21:14;99911.81;;;8.18;99.08
73817;BME280;62146;53.232;-1.304;2022-11-02T03:31:33;99943.06;;;8.09;99.00
73817;BME280;62146;53.232;-1.304;2022-11-02T03:39:33;99963.84;;;8.06;99.11
73817;BME280;62146;53.232;-1.304;2022-11-02T03:42:02;99958.19;;;8.02;99.08
73817;BME280;62146;53.232;-1.304;2022-11-02T03:44:32;99963.72;;;8.01;99.05
73817;BME280;62146;53.232;-1.304;2022-11-02T03:47:01;99960.50;;;7.99;99.05
73817;BME280;62146;53.232;-1.304;2022-11-02T03:49:29;99962.00;;;7.95;98.70
73817;BME280;62146;53.232;-1.304;2022-11-02T03:52:00;99963.28;;;7.93;98.78
73817;BME280;62146;53.232;-1.304;2022-11-02T03:57:06;99957.78;;;7.83;98.86
73817;BME280;62146;53.232;-1.304;2022-11-02T03:59:34;99967.88;;;7.86;98.73
73817;BME280;62146;53.232;-1.304;2022-11-02T04:02:01;99978.91;;;7.83;98.97
73817;BME280;62146;53.232;-1.304;2022-11-02T04:04:28;99971.22;;;7.81;98.85
73817;BME280;62146;53.232;-1.304;2022-11-02T04:06:55;99972.50;;;7.79;98.67
73817;BME280;62146;53.232;-1.304;2022-11-02T04:09:22;99981.44;;;7.78;98.63
73817;BME280;62146;53.232;-1.304;2022-11-02T04:11:48;99984.78;;;7.74;98.51
73817;BME280;62146;53.232;-1.304;2022-11-02T04:14:33;99991.31;;;7.71;98.74
73817;BME280;62146;53.232;-1.304;2022-11-02T04:17:08;99990.97;;;7.68;98.51
73817;BME280;62146;53.232;-1.304;2022-11-02T04:19:54;99994.06;;;7.65;98.51
73817;BME280;62146;53.232;-1.304;2022-11-02T04:22:22;100000.84;;;7.61;98.50
73817;BME280;62146;53.232;-1.304;2022-11-02T04:25:16;100012.44;;;7.60;98.57
73817;BME280;62146;53.232;-1.304;2022-11-02T04:27:49;100018.41;;;7.55;98.33
73817;BME280;62146;53.232;-1.304;2022-11-02T04:30:18;100010.13;;;7.52;98.53
73817;BME280;62146;53.232;-1.304;2022-11-02T04:32:47;100021.72;;;7.51;98.65
73817;BME280;62146;53.232;-1.304;2022-11-02T04:35:43;100029.06;;;7.49;98.90
73817;BME280;62146;53.232;-1.304;2022-11-02T04:38:10;100031.94;;;7.47;98.85
73817;BME280;62146;53.232;-1.304;2022-11-02T04:40:55;100025.06;;;7.47;98.61
73817;BME280;62146;53.232;-1.304;2022-11-02T04:43:41;100023.66;;;7.44;98.79
73817;BME280;62146;53.232;-1.304;2022-11-02T04:46:09;100027.81;;;7.40;98.53
73817;BME280;62146;53.232;-1.304;2022-11-02T04:48:36;100021.47;;;7.41;98.67
73817;BME280;62146;53.232;-1.304;2022-11-02T04:51:02;100035.94;;;7.39;98.75
73817;BME280;62146;53.232;-1.304;2022-11-02T04:53:29;100034.56;;;7.36;98.84
73817;BME280;62146;53.232;-1.304;2022-11-02T04:55:55;100033.75;;;7.36;98.89
73817;BME280;62146;53.232;-1.304;2022-11-02T04:58:22;100040.63;;;7.37;98.92
73817;BME280;62146;53.232;-1.304;2022-11-02T05:00:48;100046.94;;;7.36;98.87
73817;BME280;62146;53.232;-1.304;2022-11-02T05:03:15;100043.72;;;7.34;99.17
73817;BME280;62146;53.232;-1.304;2022-11-02T05:05:41;100050.03;;;7.33;99.00
73817;BME280;62146;53.232;-1.304;2022-11-02T05:08:09;100045.56;;;7.33;99.22
73817;BME280;62146;53.232;-1.304;2022-11-02T05:10:36;100046.34;;;7.34;99.09
73817;BME280;62146;53.232;-1.304;2022-11-02T05:13:02;100061.38;;;7.33;99.07
73817;BME280;62146;53.232;-1.304;2022-11-02T05:15:29;100067.09;;;7.30;99.11
73817;BME280;62146;53.232;-1.304;2022-11-02T05:17:55;100072.72;;;7.34;99.13
73817;BME280;62146;53.232;-1.304;2022-11-02T05:20:22;100080.09;;;7.32;99.37
73817;BME280;62146;53.232;-1.304;2022-11-02T05:22:49;100089.34;;;7.34;99.36
73817;BME280;62146;53.232;-1.304;2022-11-02T05:25:15;100095.91;;;7.32;99.39
73817;BME280;62146;53.232;-1.304;2022-11-02T05:27:42;100101.97;;;7.32;99.37
73817;BME280;62146;53.232;-1.304;2022-11-02T05:30:09;100097.50;;;7.33;99.61
73817;BME280;62146;53.232;-1.304;2022-11-02T05:32:35;100102.19;;;7.31;99.51
73817;BME280;62146;53.232;-1.304;2022-11-02T05:35:02;100103.22;;;7.30;99.53
73817;BME280;62146;53.232;-1.304;2022-11-02T05:37:29;100095.31;;;7.30;99.74
73817;BME280;62146;53.232;-1.304;2022-11-02T05:39:55;100101.19;;;7.32;99.68
73817;BME280;62146;53.232;-1.304;2022-11-02T05:42:23;100096.13;;;7.30;99.76
73817;BME280;62146;53.232;-1.304;2022-11-02T05:44:51;100104.50;;;7.27;99.81
73817;BME280;62146;53.232;-1.304;2022-11-02T05:47:17;100102.66;;;7.28;99.76
73817;BME280;62146;53.232;-1.304;2022-11-02T05:49:44;100094.50;;;7.29;99.97
73817;BME280;62146;53.232;-1.304;2022-11-02T05:52:10;100097.16;;;7.29;99.70
73817;BME280;62146;53.232;-1.304;2022-11-02T05:54:37;100088.69;;;7.27;99.80
73817;BME280;62146;53.232;-1.304;2022-11-02T05:57:03;100087.84;;;7.27;99.67
73817;BME280;62146;53.232;-1.304;2022-11-02T05:59:30;100091.31;;;7.27;99.63
73817;BME280;62146;53.232;-1.304;2022-11-02T06:01:56;100088.88;;;7.26;99.83
73817;BME280;62146;53.232;-1.304;2022-11-02T06:04:23;100088.31;;;7.24;99.66
73817;BME280;62146;53.232;-1.304;2022-11-02T06:06:49;100085.88;;;7.22;99.58
73817;BME280;62146;53.232;-1.304;2022-11-02T06:09:16;100083.50;;;7.21;99.68
73817;BME280;62146;53.232;-1.304;2022-11-02T06:11:42;100098.50;;;7.21;99.74
73817;BME280;62146;53.232;-1.304;2022-11-02T06:14:09;100098.72;;;7.19;99.43
73817;BME280;62146;53.232;-1.304;2022-11-02T06:16:36;100090.00;;;7.19;99.64
73817;BME280;62146;53.232;-1.304;2022-11-02T06:19:02;100094.91;;;7.15;99.65
73817;BME280;62146;53.232;-1.304;2022-11-02T06:21:29;100094.38;;;7.13;99.49
73817;BME280;62146;53.232;-1.304;2022-11-02T06:23:55;100099.63;;;7.13;99.49
73817;BME280;62146;53.232;-1.304;2022-11-02T06:26:24;100097.19;;;7.12;99.51
73817;BME280;62146;53.232;-1.304;2022-11-02T06:28:50;100087.69;;;7.11;99.57
73817;BME280;62146;53.232;-1.304;2022-11-02T06:31:17;100095.25;;;7.07;99.41
73817;BME280;62146;53.232;-1.304;2022-11-02T06:33:43;100095.47;;;7.06;99.44
73817;BME280;62146;53.232;-1.304;2022-11-02T06:36:10;100091.44;;;7.03;99.14
73817;BME280;62146;53.232;-1.304;2022-11-02T06:38:37;100094.09;;;7.03;99.39
73817;BME280;62146;53.232;-1.304;2022-11-02T06:41:04;100095.56;;;6.99;99.25
73817;BME280;62146;53.232;-1.304;2022-11-02T06:43:32;100093.97;;;6.98;99.29
73817;BME280;62146;53.232;-1.304;2022-11-02T06:45:59;100083.66;;;6.97;99.14
73817;BME280;62146;53.232;-1.304;2022-11-02T06:48:26;100089.13;;;6.95;99.26
73817;BME280;62146;53.232;-1.304;2022-11-02T06:51:00;100082.25;;;6.94;99.31
73817;BME280;62146;53.232;-1.304;2022-11-02T06:53:27;100079.84;;;6.93;99.54
73817;BME280;62146;53.232;-1.304;2022-11-02T06:55:54;100078.03;;;6.94;99.64
73817;BME280;62146;53.232;-1.304;2022-11-02T06:58:22;100069.53;;;6.92;99.48
73817;BME280;62146;53.232;-1.304;2022-11-02T07:00:55;100075.81;;;6.91;99.51
73817;BME280;62146;53.232;-1.304;2022-11-02T07:03:22;100078.22;;;6.92;99.70
73817;BME280;62146;53.232;-1.304;2022-11-02T07:05:50;100082.50;;;6.93;99.69
73817;BME280;62146;53.232;-1.304;2022-11-02T07:08:19;100077.44;;;6.92;99.63
73817;BME280;62146;53.232;-1.304;2022-11-02T07:10:46;100081.09;;;6.91;99.69
73817;BME280;62146;53.232;-1.304;2022-11-02T07:13:13;100081.91;;;6.91;99.53
73817;BME280;62146;53.232;-1.304;2022-11-02T07:15:39;100080.31;;;6.90;99.78
73817;BME280;62146;53.232;-1.304;2022-11-02T07:18:06;100091.63;;;6.91;99.79
73817;BME280;62146;53.232;-1.304;2022-11-02T07:20:34;100086.81;;;6.88;99.90
73817;BME280;62146;53.232;-1.304;2022-11-02T07:23:01;100092.22;;;6.93;99.88
73817;BME280;62146;53.232;-1.304;2022-11-02T07:25:30;100089.81;;;6.91;99.88
73817;BME280;62146;53.232;-1.304;2022-11-02T07:27:58;100100.34;;;6.91;99.97
73817;BME280;62146;53.232;-1.304;2022-11-02T07:30:27;100100.59;;;6.90;99.88
73817;BME280;62146;53.232;-1.304;2022-11-02T07:32:54;100099.56;;;6.91;100.00
73817;BME280;62146;53.232;-1.304;2022-11-02T07:35:20;100091.63;;;6.91;100.00
73817;BME280;62146;53.232;-1.304;2022-11-02T07:37:58;100084.53;;;6.91;100.00
73817;BME280;62146;53.232;-1.304;2022-11-02T07:40:26;100092.00;;;6.94;100.00
73817;BME280;62146;53.232;-1.304;2022-11-02T07:42:53;100091.19;;;6.94;100.00
73817;BME280;62146;53.232;-1.304;2022-11-02T07:45:21;100091.19;;;6.94;100.00
73817;BME280;62146;53.232;-1.304;2022-11-02T07:47:48;100091.75;;;6.95;100.00
73817;BME280;62146;53.232;-1.304;2022-11-02T07:50:18;100105.75;;;6.96;100.00
73817;BME280;62146;53.232;-1.304;2022-11-02T07:52:46;100109.34;;;7.01;100.00
73817;BME280;62146;53.232;-1.304;2022-11-02T07:55:14;100099.16;;;7.05;100.00
73817;BME280;62146;53.232;-1.304;2022-11-02T07:57:41;100101.91;;;7.10;100.00
73817;BME280;62146;53.232;-1.304;2022-11-02T08:00:10;100113.84;;;7.12;100.00
73817;BME280;62146;53.232;-1.304;2022-11-02T08:02:37;100115.22;;;7.15;100.00
73817;BME280;62146;53.232;-1.304;2022-11-02T08:05:05;100110.31;;;7.18;100.00
73817;BME280;62146;53.232;-1.304;2022-11-02T08:07:31;100119.16;;;7.23;100.00
73817;BME280;62146;53.232;-1.304;2022-11-02T08:09:58;100125.00;;;7.25;100.00
73817;BME280;62146;53.232;-1.304;2022-11-02T08:12:25;100128.44;;;7.26;100.00
73817;BME280;62146;53.232;-1.304;2022-11-02T08:14:52;100137.75;;;7.28;100.00
73817;BME280;62146;53.232;-1.304;2022-11-02T08:17:18;100120.66;;;7.31;100.00
73817;BME280;62146;53.232;-1.304;2022-11-02T08:19:45;100114.13;;;7.33;100.00
73817;BME280;62146;53.232;-1.304;2022-11-02T08:22:11;100131.69;;;7.39;100.00
73817;BME280;62146;53.232;-1.304;2022-11-02T08:24:38;100133.88;;;7.42;99.90
73817;BME280;62146;53.232;-1.304;2022-11-02T08:27:06;100108.63;;;7.46;99.58
73817;BME280;62146;53.232;-1.304;2022-11-02T08:29:32;100100.88;;;7.51;99.23
73817;BME280;62146;53.232;-1.304;2022-11-02T08:32:00;100094.66;;;7.57;99.34
73817;BME280;62146;53.232;-1.304;2022-11-02T08:34:26;100094.34;;;7.65;99.17
73817;BME280;62146;53.232;-1.304;2022-11-02T08:36:53;100089.75;;;7.72;98.89
73817;BME280;62146;53.232;-1.304;2022-11-02T08:39:20;100079.09;;;7.78;98.73
73817;BME280;62146;53.232;-1.304;2022-11-02T08:41:46;100087.47;;;7.86;98.53
73817;BME280;62146;53.232;-1.304;2022-11-02T08:44:13;100088.72;;;7.95;98.82
73817;BME280;62146;53.232;-1.304;2022-11-02T08:46:39;100101.38;;;8.04;98.98
73817;BME280;62146;53.232;-1.304;2022-11-02T08:49:06;100095.19;;;8.10;99.34
73817;BME280;62146;53.232;-1.304;2022-11-02T08:51:32;100105.03;;;8.15;99.47
73817;BME280;62146;53.232;-1.304;2022-11-02T08:53:59;100108.63;;;8.20;99.76
73817;BME280;62146;53.232;-1.304;2022-11-02T08:56:25;100103.44;;;8.25;99.99
73817;BME280;62146;53.232;-1.304;2022-11-02T08:58:52;100099.09;;;8.30;100.00
73817;BME280;62146;53.232;-1.304;2022-11-02T09:01:18;100093.09;;;8.35;99.97
73817;BME280;62146;53.232;-1.304;2022-11-02T09:03:45;100094.44;;;8.37;100.00
73817;BME280;62146;53.232;-1.304;2022-11-02T09:06:11;100098.03;;;8.43;100.00
73817;BME280;62146;53.232;-1.304;2022-11-02T09:08:38;100087.00;;;8.46;100.00
73817;BME280;62146;53.232;-1.304;2022-11-02T09:11:04;100084.69;;;8.49;100.00
73817;BME280;62146;53.232;-1.304;2022-11-02T09:13:31;100088.22;;;8.55;100.00
73817;BME280;62146;53.232;-1.304;2022-11-02T09:15:58;100095.44;;;8.59;100.00
73817;BME280;62146;53.232;-1.304;2022-11-02T09:18:25;100081.75;;;8.62;100.00
73817;BME280;62146;53.232;-1.304;2022-11-02T09:20:52;100080.81;;;8.68;100.00
73817;BME280;62146;53.232;-1.304;2022-11-02T09:23:19;100065.53;;;8.70;100.00
73817;BME280;62146;53.232;-1.304;2022-11-02T09:25:47;100076.53;;;8.78;100.00
73817;BME280;62146;53.232;-1.304;2022-11-02T09:28:14;100067.41;;;8.85;100.00
73817;BME280;62146;53.232;-1.304;2022-11-02T09:30:41;100072.78;;;8.90;100.00
73817;BME280;62146;53.232;-1.304;2022-11-02T09:33:09;100071.63;;;8.98;100.00
73817;BME280;62146;53.232;-1.304;2022-11-02T09:35:38;100056.31;;;9.00;100.00
73817;BME280;62146;53.232;-1.304;2022-11-02T09:38:06;100060.97;;;9.09;100.00
73817;BME280;62146;53.232;-1.304;2022-11-02T09:40:43;100055.31;;;9.17;100.00
73817;BME280;62146;53.232;-1.304;2022-11-02T09:43:33;100041.94;;;9.23;100.00
73817;BME280;62146;53.232;-1.304;2022-11-02T09:46:06;100037.28;;;9.30;100.00
73817;BME280;62146;53.232;-1.304;2022-11-02T09:48:40;100023.59;;;9.33;100.00
73817;BME280;62146;53.232;-1.304;2022-11-02T09:51:12;100026.38;;;9.43;100.00
73817;BME280;62146;53.232;-1.304;2022-11-02T09:53:51;100025.25;;;9.55;100.00
73817;BME280;62146;53.232;-1.304;2022-11-02T09:56:20;100016.34;;;9.61;100.00
73817;BME280;62146;53.232;-1.304;2022-11-02T09:58:53;99996.59;;;9.68;100.00
73817;BME280;62146;53.232;-1.304;2022-11-02T10:01:33;99989.63;;;9.79;100.00
73817;BME280;62146;53.232;-1.304;2022-11-02T10:06:36;99991.94;;;9.91;100.00
73817;BME280;62146;53.232;-1.304;2022-11-02T10:09:18;99977.41;;;9.94;100.00
73817;BME280;62146;53.232;-1.304;2022-11-02T10:12:14;99987.56;;;10.02;100.00
73817;BME280;62146;53.232;-1.304;2022-11-02T10:14:58;99974.38;;;10.07;100.00
73817;BME280;62146;53.232;-1.304;2022-11-02T10:17:29;99981.91;;;10.15;100.00
73817;BME280;62146;53.232;-1.304;2022-11-02T10:20:02;99968.16;;;10.17;100.00
73817;BME280;62146;53.232;-1.304;2022-11-02T10:22:38;99969.59;;;10.25;100.00
73817;BME280;62146;53.232;-1.304;2022-11-02T10:25:13;99961.19;;;10.33;100.00
73817;BME280;62146;53.232;-1.304;2022-11-02T10:27:43;99952.50;;;10.37;100.00
73817;BME280;62146;53.232;-1.304;2022-11-02T10:30:16;99938.78;;;10.45;100.00
73817;BME280;62146;53.232;-1.304;2022-11-02T10:32:46;99941.47;;;10.50;100.00
73817;BME280;62146;53.232;-1.304;2022-11-02T10:51:55;99921.22;;;10.96;100.00
73817;BME280;62146;53.232;-1.304;2022-11-02T10:54:23;99920.50;;;11.00;100.00
73817;BME280;62146;53.232;-1.304;2022-11-02T10:57:06;99906.47;;;11.05;100.00
73817;BME280;62146;53.232;-1.304;2022-11-02T10:59:35;99904.63;;;11.10;100.00
73817;BME280;62146;53.232;-1.304;2022-11-02T11:02:11;99910.22;;;11.14;100.00
73817;BME280;62146;53.232;-1.304;2022-11-02T11:04:40;99885.28;;;11.15;100.00
73817;BME280;62146;53.232;-1.304;2022-11-02T11:07:16;99876.56;;;11.19;100.00
73817;BME280;62146;53.232;-1.304;2022-11-02T11:09:50;99873.38;;;11.22;100.00
73817;BME280;62146;53.232;-1.304;2022-11-02T11:12:22;99873.16;;;11.23;100.00
73817;BME280;62146;53.232;-1.304;2022-11-02T11:14:55;99860.13;;;11.22;100.00
73817;BME280;62146;53.232;-1.304;2022-11-02T11:17:43;99864.41;;;11.28;100.00
73817;BME280;62146;53.232;-1.304;2022-11-02T11:20:32;99850.34;;;11.27;100.00
73817;BME280;62146;53.232;-1.304;2022-11-02T11:25:41;99844.00;;;11.33;100.00
73817;BME280;62146;53.232;-1.304;2022-11-02T11:28:38;99831.00;;;11.37;100.00
73817;BME280;62146;53.232;-1.304;2022-11-02T11:31:11;99825.69;;;11.37;100.00
73817;BME280;62146;53.232;-1.304;2022-11-02T11:33:53;99807.16;;;11.42;100.00
73817;BME280;62146;53.232;-1.304;2022-11-02T11:38:48;99794.16;;;11.45;100.00
73817;BME280;62146;53.232;-1.304;2022-11-02T11:41:16;99776.13;;;11.47;100.00
73817;BME280;62146;53.232;-1.304;2022-11-02T11:43:44;99772.16;;;11.50;100.00
73817;BME280;62146;53.232;-1.304;2022-11-02T11:46:12;99768.19;;;11.52;100.00
73817;BME280;62146;53.232;-1.304;2022-11-02T11:48:43;99760.50;;;11.55;100.00
73817;BME280;62146;53.232;-1.304;2022-11-02T11:54:17;99768.75;;;11.64;100.00
73817;BME280;62146;53.232;-1.304;2022-11-02T11:56:46;99750.94;;;11.64;100.00
73817;BME280;62146;53.232;-1.304;2022-11-02T12:01:55;99733.47;;;11.73;100.00
73817;BME280;62146;53.232;-1.304;2022-11-02T12:04:30;99734.53;;;11.77;100.00
73817;BME280;62146;53.232;-1.304;2022-11-02T12:07:18;99725.22;;;11.79;100.00
73817;BME280;62146;53.232;-1.304;2022-11-02T12:10:02;99738.78;;;11.83;100.00
73817;BME280;62146;53.232;-1.304;2022-11-02T12:23:46;99703.47;;;11.97;100.00
73817;BME280;62146;53.232;-1.304;2022-11-02T12:26:24;99684.34;;;12.00;100.00
73817;BME280;62146;53.232;-1.304;2022-11-02T12:29:06;99658.81;;;12.04;100.00
73817;BME280;62146;53.232;-1.304;2022-11-02T12:31:41;99654.81;;;12.06;100.00
73817;BME280;62146;53.232;-1.304;2022-11-02T12:37:28;99636.50;;;12.15;100.00
73817;BME280;62146;53.232;-1.304;2022-11-02T12:40:29;99614.69;;;12.18;100.00
73817;BME280;62146;53.232;-1.304;2022-11-02T12:51:07;99599.50;;;12.33;100.00
73817;BME280;62146;53.232;-1.304;2022-11-02T12:56:04;99574.22;;;12.40;100.00
73817;BME280;62146;53.232;-1.304;2022-11-02T12:58:35;99578.16;;;12.48;100.00
73817;BME280;62146;53.232;-1.304;2022-11-02T13:03:48;99570.13;;;12.62;100.00
73817;BME280;62146;53.232;-1.304;2022-11-02T13:06:27;99565.03;;;12.71;100.00
73817;BME280;62146;53.232;-1.304;2022-11-02T13:09:06;99544.81;;;12.85;100.00
73817;BME280;62146;53.232;-1.304;2022-11-02T13:11:38;99538.59;;;12.99;100.00
73817;BME280;62146;53.232;-1.304;2022-11-02T13:14:11;99521.47;;;13.14;100.00
73817;BME280;62146;53.232;-1.304;2022-11-02T13:16:51;99531.19;;;13.29;100.00
73817;BME280;62146;53.232;-1.304;2022-11-02T13:19:29;99540.19;;;13.38;100.00
73817;BME280;62146;53.232;-1.304;2022-11-02T13:21:59;99528.69;;;13.42;100.00
73817;BME280;62146;53.232;-1.304;2022-11-02T13:24:29;99532.38;;;13.46;100.00
73817;BME280;62146;53.232;-1.304;2022-11-02T13:27:01;99517.97;;;13.52;100.00
73817;BME280;62146;53.232;-1.304;2022-11-02T13:29:44;99496.41;;;13.48;100.00
73817;BME280;62146;53.232;-1.304;2022-11-02T13:35:05;99487.06;;;13.51;100.00
73817;BME280;62146;53.232;-1.304;2022-11-02T13:37:40;99476.13;;;13.52;100.00
73817;BME280;62146;53.232;-1.304;2022-11-02T13:40:23;99483.03;;;13.53;100.00
73817;BME280;62146;53.232;-1.304;2022-11-02T13:45:54;99469.66;;;13.58;100.00
73817;BME280;62146;53.232;-1.304;2022-11-02T13:49:18;99459.81;;;13.59;100.00
73817;BME280;62146;53.232;-1.304;2022-11-02T13:51:46;99450.19;;;13.63;100.00
73817;BME280;62146;53.232;-1.304;2022-11-02T13:54:28;99444.84;;;13.63;100.00
73817;BME280;62146;53.232;-1.304;2022-11-02T13:56:56;99438.47;;;13.64;100.00
73817;BME280;62146;53.232;-1.304;2022-11-02T13:59:34;99423.81;;;13.61;100.00
73817;BME280;62146;53.232;-1.304;2022-11-02T14:02:13;99446.16;;;13.65;100.00
73817;BME280;62146;53.232;-1.304;2022-11-02T14:04:42;99448.53;;;13.66;100.00
73817;BME280;62146;53.232;-1.304;2022-11-02T14:07:35;99441.84;;;13.69;100.00
73817;BME280;62146;53.232;-1.304;2022-11-02T14:10:12;99436.28;;;13.65;100.00
73817;BME280;62146;53.232;-1.304;2022-11-02T14:12:47;99439.19;;;13.69;100.00
73817;BME280;62146;53.232;-1.304;2022-11-02T14:39:34;99380.56;;;13.69;100.00
73817;BME280;62146;53.232;-1.304;2022-11-02T14:47:36;99333.91;;;13.71;100.00
73817;BME280;62146;53.232;-1.304;2022-11-02T14:52:42;99317.63;;;13.73;100.00
73817;BME280;62146;53.232;-1.304;2022-11-02T14:55:20;99315.19;;;13.76;100.00
73817;BME280;62146;53.232;-1.304;2022-11-02T15:02:55;99293.09;;;13.76;100.00
73817;BME280;62146;53.232;-1.304;2022-11-02T15:05:27;99286.66;;;13.77;100.00
73817;BME280;62146;53.232;-1.304;2022-11-02T15:07:55;99293.09;;;13.76;100.00
73817;BME280;62146;53.232;-1.304;2022-11-02T15:18:30;99250.53;;;13.71;100.00
73817;BME280;62146;53.232;-1.304;2022-11-02T15:26:30;99251.38;;;13.66;100.00
73817;BME280;62146;53.232;-1.304;2022-11-02T15:29:10;99251.66;;;13.65;100.00
73817;BME280;62146;53.232;-1.304;2022-11-02T15:31:40;99246.84;;;13.67;100.00
73817;BME280;62146;53.232;-1.304;2022-11-02T15:34:14;99249.78;;;13.65;100.00